createdAt,value
2023-03-23T16:02:24.147Z,13.61
2023-03-23T16:07:25.918Z,13.77
2023-03-23T16:12:27.477Z,13.68
2023-03-23T16:17:29.123Z,13.56
2023-03-23T16:22:30.798Z,13.15
2023-03-23T16:27:32.498Z,13.16
2023-03-23T16:37:34.663Z,12.52
2023-03-23T16:42:36.251Z,12.42
2023-03-23T16:47:38.110Z,12.48
2023-03-23T16:52:46.268Z,12.45
2023-03-23T16:57:48.422Z,12.43
2023-03-23T17:02:52.186Z,12.31
2023-03-23T17:07:57.285Z,12.12
2023-03-23T17:12:59.328Z,12.12
2023-03-23T17:18:01.956Z,11.94
2023-03-23T17:23:04.740Z,11.77
2023-03-23T17:28:07.173Z,11.70
2023-03-23T17:33:09.674Z,11.62
2023-03-23T17:38:11.435Z,11.63
2023-03-23T17:43:13.282Z,11.54
2023-03-23T17:48:14.982Z,11.49
2023-03-23T17:53:18.513Z,11.67
2023-03-23T17:58:20.349Z,11.83
2023-03-23T18:03:22.845Z,11.94
2023-03-23T18:08:26.206Z,12.02
2023-03-23T18:13:32.312Z,12.01
2023-03-23T18:18:34.197Z,12.04
2023-03-23T18:23:46.129Z,12.15
2023-03-23T18:28:52.341Z,12.17
2023-03-23T18:33:57.013Z,12.17
2023-03-23T18:38:58.795Z,12.15
2023-03-23T18:44:00.391Z,12.10
2023-03-23T18:49:02.022Z,12.01
2023-03-23T18:54:03.918Z,12.12
2023-03-23T18:59:06.459Z,12.20
2023-03-23T19:04:08.079Z,12.22
2023-03-23T19:09:09.718Z,12.31
2023-03-23T19:14:11.961Z,12.32
2023-03-23T19:19:14.211Z,12.34
2023-03-23T19:24:16.051Z,12.34
2023-03-23T19:29:26.710Z,12.44
2023-03-23T19:34:30.645Z,12.44
2023-03-23T19:39:33.228Z,12.44
2023-03-23T19:44:34.987Z,12.49
2023-03-23T19:49:36.931Z,12.51
2023-03-23T19:54:39.425Z,12.67
2023-03-23T19:59:41.244Z,12.57
2023-03-23T20:04:45.429Z,12.58
2023-03-23T20:09:48.546Z,12.82
2023-03-23T20:14:50.781Z,12.64
2023-03-23T20:19:52.368Z,12.81
2023-03-23T20:24:53.939Z,12.96
2023-03-23T20:29:56.167Z,12.92
2023-03-23T20:34:59.590Z,12.82
2023-03-23T20:40:02.387Z,12.95
2023-03-23T20:45:05.504Z,12.72
2023-03-23T20:50:08.797Z,12.79
2023-03-23T20:55:10.747Z,12.68
2023-03-23T21:00:16.372Z,12.54
2023-03-23T21:05:18.116Z,12.28
2023-03-23T21:10:22.783Z,12.34
2023-03-23T21:15:24.502Z,12.12
2023-03-23T21:20:26.329Z,11.88
2023-03-23T21:25:34.546Z,11.83
2023-03-23T21:30:37.909Z,11.62
2023-03-23T21:35:41.810Z,11.59
2023-03-23T21:40:44.085Z,11.51
2023-03-23T21:45:46.080Z,11.54
2023-03-23T21:50:47.987Z,11.40
2023-03-23T21:55:54.610Z,11.47
2023-03-23T22:00:56.660Z,11.48
2023-03-23T22:06:04.845Z,11.39
2023-03-23T22:11:10.827Z,11.52
2023-03-23T22:16:14.472Z,11.29
2023-03-23T22:21:17.198Z,11.44
2023-03-23T22:26:19.580Z,11.51
2023-03-23T22:31:24.320Z,11.53
2023-03-23T22:36:27.946Z,11.52
2023-03-23T22:41:33.100Z,11.46
2023-03-23T22:46:34.788Z,11.36
2023-03-23T22:51:39.329Z,11.31
2023-03-23T22:56:41.198Z,11.28
2023-03-23T23:01:42.934Z,11.23
2023-03-23T23:06:44.599Z,11.26
2023-03-23T23:11:46.409Z,11.17
2023-03-23T23:16:48.304Z,11.20
2023-03-23T23:21:50.995Z,11.22
2023-03-23T23:26:53.229Z,11.66
2023-03-23T23:31:54.936Z,11.54
2023-03-23T23:36:59.490Z,11.33
2023-03-23T23:42:01.088Z,11.47
2023-03-23T23:47:03.144Z,11.74
2023-03-23T23:52:05.024Z,11.84
2023-03-23T23:57:06.685Z,12.11
